sensor_id;sensor_type;location;lat;lon;timestamp;pressure;altitude;pressure_sealevel;temperature;humidity
80116;BME280;69423;47.608;19.366;2024-01-30T00:00:18;101200.16;;;-2.50;97.47
80116;BME280;69423;47.608;19.366;2024-01-30T00:00:49;101196.72;;;-2.52;97.11
80116;BME280;69423;47.608;19.366;2024-01-30T00:01:20;101201.06;;;-2.51;96.94
80116;BME280;69423;47.608;19.366;2024-01-30T00:01:51;101204.56;;;-2.52;97.27
80116;BME280;69423;47.608;19.366;2024-01-30T00:02:22;101201.97;;;-2.52;97.35
80116;BME280;69423;47.608;19.366;2024-01-30T00:02:53;101205.38;;;-2.50;97.31
80116;BME280;69423;47.608;19.366;2024-01-30T00:03:24;101200.41;;;-2.58;97.42
80116;BME280;69423;47.608;19.366;2024-01-30T00:03:55;101201.31;;;-2.60;97.47
80116;BME280;69423;47.608;19.366;2024-01-30T00:04:26;101200.53;;;-2.62;97.97
80116;BME280;69423;47.608;19.366;2024-01-30T00:04:57;101202.19;;;-2.60;97.92
80116;BME280;69423;47.608;19.366;2024-01-30T00:05:28;101201.44;;;-2.65;98.39
80116;BME280;69423;47.608;19.366;2024-01-30T00:05:59;101199.66;;;-2.63;98.45
80116;BME280;69423;47.608;19.366;2024-01-30T00:06:31;101204.88;;;-2.63;98.62
80116;BME280;69423;47.608;19.366;2024-01-30T00:07:02;101201.53;;;-2.67;98.55
80116;BME280;69423;47.608;19.366;2024-01-30T00:07:34;101204.13;;;-2.67;98.33
80116;BME280;69423;47.608;19.366;2024-01-30T00:08:05;101198.97;;;-2.70;98.20
80116;BME280;69423;47.608;19.366;2024-01-30T00:08:36;101205.00;;;-2.68;98.39
80116;BME280;69423;47.608;19.366;2024-01-30T00:09:07;101198.97;;;-2.70;98.45
80116;BME280;69423;47.608;19.366;2024-01-30T00:09:39;101186.84;;;-2.71;98.37
80116;BME280;69423;47.608;19.366;2024-01-30T00:10:10;101197.22;;;-2.69;98.30
80116;BME280;69423;47.608;19.366;2024-01-30T00:10:41;101199.81;;;-2.69;98.30
80116;BME280;69423;47.608;19.366;2024-01-30T00:11:12;101198.13;;;-2.70;98.48
80116;BME280;69423;47.608;19.366;2024-01-30T00:11:43;101187.72;;;-2.72;98.57
80116;BME280;69423;47.608;19.366;2024-01-30T00:12:14;101188.66;;;-2.74;98.67
80116;BME280;69423;47.608;19.366;2024-01-30T00:12:46;101191.97;;;-2.68;99.02
80116;BME280;69423;47.608;19.366;2024-01-30T00:13:17;101187.47;;;-2.62;98.96
80116;BME280;69423;47.608;19.366;2024-01-30T00:13:50;101190.88;;;-2.60;99.36
80116;BME280;69423;47.608;19.366;2024-01-30T00:14:21;101197.84;;;-2.61;99.38
80116;BME280;69423;47.608;19.366;2024-01-30T00:14:52;101199.53;;;-2.58;98.97
80116;BME280;69423;47.608;19.366;2024-01-30T00:15:23;101197.78;;;-2.58;98.96
80116;BME280;69423;47.608;19.366;2024-01-30T00:15:54;101195.97;;;-2.56;98.61
80116;BME280;69423;47.608;19.366;2024-01-30T00:16:26;101195.97;;;-2.56;98.37
80116;BME280;69423;47.608;19.366;2024-01-30T00:16:57;101198.53;;;-2.54;98.22
80116;BME280;69423;47.608;19.366;2024-01-30T00:17:28;101195.19;;;-2.58;98.37
80116;BME280;69423;47.608;19.366;2024-01-30T00:17:59;101194.41;;;-2.61;98.22
80116;BME280;69423;47.608;19.366;2024-01-30T00:18:30;101200.47;;;-2.61;98.39
80116;BME280;69423;47.608;19.366;2024-01-30T00:19:01;101196.03;;;-2.57;98.34
80116;BME280;69423;47.608;19.366;2024-01-30T00:19:33;101194.28;;;-2.58;98.02
80116;BME280;69423;47.608;19.366;2024-01-30T00:20:04;101194.41;;;-2.61;98.50
80116;BME280;69423;47.608;19.366;2024-01-30T00:20:36;101194.38;;;-2.60;98.53
80116;BME280;69423;47.608;19.366;2024-01-30T00:21:07;101199.53;;;-2.58;98.29
80116;BME280;69423;47.608;19.366;2024-01-30T00:21:38;101197.00;;;-2.61;98.08
80116;BME280;69423;47.608;19.366;2024-01-30T00:22:09;101198.69;;;-2.60;98.08
80116;BME280;69423;47.608;19.366;2024-01-30T00:22:40;101202.25;;;-2.63;98.15
80116;BME280;69423;47.608;19.366;2024-01-30T00:23:11;101204.94;;;-2.65;98.47
80116;BME280;69423;47.608;19.366;2024-01-30T00:23:42;101201.41;;;-2.63;98.57
80116;BME280;69423;47.608;19.366;2024-01-30T00:24:13;101198.97;;;-2.70;98.66
80116;BME280;69423;47.608;19.366;2024-01-30T00:24:44;101193.75;;;-2.70;98.33
80116;BME280;69423;47.608;19.366;2024-01-30T00:25:15;101200.75;;;-2.70;98.71
80116;BME280;69423;47.608;19.366;2024-01-30T00:25:46;101195.59;;;-2.73;98.80
80116;BME280;69423;47.608;19.366;2024-01-30T00:26:17;101192.22;;;-2.77;99.03
80116;BME280;69423;47.608;19.366;2024-01-30T00:26:48;101198.34;;;-2.78;98.84
80116;BME280;69423;47.608;19.366;2024-01-30T00:27:19;101189.66;;;-2.78;99.14
80116;BME280;69423;47.608;19.366;2024-01-30T00:27:50;101197.44;;;-2.77;99.22
80116;BME280;69423;47.608;19.366;2024-01-30T00:28:22;101191.31;;;-2.76;99.31
80116;BME280;69423;47.608;19.366;2024-01-30T00:28:53;101205.28;;;-2.77;99.33
80116;BME280;69423;47.608;19.366;2024-01-30T00:29:24;101198.34;;;-2.78;99.11
80116;BME280;69423;47.608;19.366;2024-01-30T00:29:56;101200.13;;;-2.80;99.20
80116;BME280;69423;47.608;19.366;2024-01-30T00:30:27;101193.97;;;-2.77;99.07
80116;BME280;69423;47.608;19.366;2024-01-30T00:30:58;101199.28;;;-2.80;99.33
80116;BME280;69423;47.608;19.366;2024-01-30T00:31:29;101202.84;;;-2.83;99.77
80116;BME280;69423;47.608;19.366;2024-01-30T00:32:00;101195.81;;;-2.81;99.77
80116;BME280;69423;47.608;19.366;2024-01-30T00:32:31;101197.56;;;-2.81;99.91
80116;BME280;69423;47.608;19.366;2024-01-30T00:33:02;101201.03;;;-2.81;99.66
80116;BME280;69423;47.608;19.366;2024-01-30T00:33:33;101202.75;;;-2.80;99.85
80116;BME280;69423;47.608;19.366;2024-01-30T00:34:04;101201.72;;;-2.74;100.00
80116;BME280;69423;47.608;19.366;2024-01-30T00:34:35;101201.72;;;-2.74;99.95
80116;BME280;69423;47.608;19.366;2024-01-30T00:35:06;101200.00;;;-2.75;99.84
80116;BME280;69423;47.608;19.366;2024-01-30T00:35:37;101188.63;;;-2.73;99.90
80116;BME280;69423;47.608;19.366;2024-01-30T00:36:09;101194.66;;;-2.71;99.77
80116;BME280;69423;47.608;19.366;2024-01-30T00:36:40;101204.03;;;-2.63;99.68
80116;BME280;69423;47.608;19.366;2024-01-30T00:37:11;101200.53;;;-2.62;99.74
80116;BME280;69423;47.608;19.366;2024-01-30T00:37:42;101194.50;;;-2.65;99.58
80116;BME280;69423;47.608;19.366;2024-01-30T00:38:13;101204.03;;;-2.63;99.66
80116;BME280;69423;47.608;19.366;2024-01-30T00:38:44;101210.91;;;-2.61;99.48
80116;BME280;69423;47.608;19.366;2024-01-30T00:39:15;101209.97;;;-2.58;99.47
80116;BME280;69423;47.608;19.366;2024-01-30T00:39:47;101199.47;;;-2.57;99.08
80116;BME280;69423;47.608;19.366;2024-01-30T00:40:18;101204.66;;;-2.55;99.15
80116;BME280;69423;47.608;19.366;2024-01-30T00:40:49;101206.38;;;-2.54;99.00
80116;BME280;69423;47.608;19.366;2024-01-30T00:41:20;101200.25;;;-2.53;98.59
80116;BME280;69423;47.608;19.366;2024-01-30T00:41:51;101198.53;;;-2.54;98.89
80116;BME280;69423;47.608;19.366;2024-01-30T00:42:22;101210.06;;;-2.61;98.84
80116;BME280;69423;47.608;19.366;2024-01-30T00:42:54;101210.03;;;-2.60;98.98
80116;BME280;69423;47.608;19.366;2024-01-30T00:43:25;101205.81;;;-2.66;99.12
80116;BME280;69423;47.608;19.366;2024-01-30T00:43:56;101201.53;;;-2.67;98.99
80116;BME280;69423;47.608;19.366;2024-01-30T00:44:27;101194.66;;;-2.71;99.14
80116;BME280;69423;47.608;19.366;2024-01-30T00:44:58;101205.06;;;-2.69;98.96
80116;BME280;69423;47.608;19.366;2024-01-30T00:45:29;101201.56;;;-2.68;98.86
80116;BME280;69423;47.608;19.366;2024-01-30T00:46:01;101202.38;;;-2.66;98.69
80116;BME280;69423;47.608;19.366;2024-01-30T00:46:32;101204.06;;;-2.65;98.37
80116;BME280;69423;47.608;19.366;2024-01-30T00:47:03;101194.44;;;-2.63;98.29
80116;BME280;69423;47.608;19.366;2024-01-30T00:47:34;101204.03;;;-2.63;97.88
80116;BME280;69423;47.608;19.366;2024-01-30T00:48:05;101204.13;;;-2.67;97.69
80116;BME280;69423;47.608;19.366;2024-01-30T00:48:36;101199.81;;;-2.69;98.07
80116;BME280;69423;47.608;19.366;2024-01-30T00:49:07;101193.72;;;-2.68;98.03
80116;BME280;69423;47.608;19.366;2024-01-30T00:49:38;101198.09;;;-2.69;98.64
80116;BME280;69423;47.608;19.366;2024-01-30T00:50:10;101204.19;;;-2.70;98.42
80116;BME280;69423;47.608;19.366;2024-01-30T00:50:41;101196.38;;;-2.70;98.30
80116;BME280;69423;47.608;19.366;2024-01-30T00:51:12;101199.94;;;-2.72;98.59
80116;BME280;69423;47.608;19.366;2024-01-30T00:51:43;101197.31;;;-2.72;98.77
80116;BME280;69423;47.608;19.366;2024-01-30T00:52:15;101198.09;;;-2.69;98.62
80116;BME280;69423;47.608;19.366;2024-01-30T00:52:46;101204.13;;;-2.67;98.73
80116;BME280;69423;47.608;19.366;2024-01-30T00:53:17;101202.41;;;-2.68;98.54
80116;BME280;69423;47.608;19.366;2024-01-30T00:53:48;101203.31;;;-2.69;98.31
80116;BME280;69423;47.608;19.366;2024-01-30T00:54:19;101206.81;;;-2.70;98.13
80116;BME280;69423;47.608;19.366;2024-01-30T00:54:50;101189.34;;;-2.68;98.45
80116;BME280;69423;47.608;19.366;2024-01-30T00:55:21;101198.91;;;-2.67;98.46
80116;BME280;69423;47.608;19.366;2024-01-30T00:55:52;101199.72;;;-2.65;98.69
80116;BME280;69423;47.608;19.366;2024-01-30T00:56:23;101198.81;;;-2.63;98.74
80116;BME280;69423;47.608;19.366;2024-01-30T00:56:55;101204.06;;;-2.65;98.88
80116;BME280;69423;47.608;19.366;2024-01-30T00:57:26;101199.66;;;-2.63;98.71
80116;BME280;69423;47.608;19.366;2024-01-30T00:57:57;101206.59;;;-2.62;98.58
80116;BME280;69423;47.608;19.366;2024-01-30T00:58:28;101198.69;;;-2.60;98.38
80116;BME280;69423;47.608;19.366;2024-01-30T00:58:59;101203.03;;;-2.59;98.25
80116;BME280;69423;47.608;19.366;2024-01-30T00:59:30;101203.94;;;-2.60;98.02
80116;BME280;69423;47.608;19.366;2024-01-30T01:00:02;101203.94;;;-2.60;97.90
80116;BME280;69423;47.608;19.366;2024-01-30T01:00:34;101205.66;;;-2.59;98.09
80116;BME280;69423;47.608;19.366;2024-01-30T01:01:05;101204.72;;;-2.57;98.49
80116;BME280;69423;47.608;19.366;2024-01-30T01:01:38;101201.25;;;-2.57;98.36
80116;BME280;69423;47.608;19.366;2024-01-30T01:02:09;101200.31;;;-2.56;98.36
80116;BME280;69423;47.608;19.366;2024-01-30T01:02:40;101195.22;;;-2.59;98.44
80116;BME280;69423;47.608;19.366;2024-01-30T01:03:11;101196.16;;;-2.62;98.55
80116;BME280;69423;47.608;19.366;2024-01-30T01:03:42;101201.31;;;-2.60;98.36
80116;BME280;69423;47.608;19.366;2024-01-30T01:04:14;101197.81;;;-2.59;98.09
80116;BME280;69423;47.608;19.366;2024-01-30T01:04:45;101202.94;;;-2.56;97.61
80116;BME280;69423;47.608;19.366;2024-01-30T01:05:16;101208.13;;;-2.55;97.96
80116;BME280;69423;47.608;19.366;2024-01-30T01:05:48;101200.44;;;-2.59;97.60
80116;BME280;69423;47.608;19.366;2024-01-30T01:06:19;101202.22;;;-2.61;97.61
80116;BME280;69423;47.608;19.366;2024-01-30T01:06:50;101196.34;;;-2.68;97.43
80116;BME280;69423;47.608;19.366;2024-01-30T01:07:21;101199.91;;;-2.71;97.31
80116;BME280;69423;47.608;19.366;2024-01-30T01:07:52;101202.53;;;-2.72;97.74
80116;BME280;69423;47.608;19.366;2024-01-30T01:08:23;101199.94;;;-2.72;98.10
80116;BME280;69423;47.608;19.366;2024-01-30T01:08:54;101204.31;;;-2.73;98.40
80116;BME280;69423;47.608;19.366;2024-01-30T01:09:25;101197.22;;;-2.69;98.48
80116;BME280;69423;47.608;19.366;2024-01-30T01:09:57;101202.34;;;-2.65;98.13
80116;BME280;69423;47.608;19.366;2024-01-30T01:10:28;101206.63;;;-2.63;98.20
80116;BME280;69423;47.608;19.366;2024-01-30T01:10:59;101204.03;;;-2.63;98.20
80116;BME280;69423;47.608;19.366;2024-01-30T01:11:30;101201.41;;;-2.63;98.22
80116;BME280;69423;47.608;19.366;2024-01-30T01:12:03;101201.38;;;-2.62;98.24
80116;BME280;69423;47.608;19.366;2024-01-30T01:12:34;101204.94;;;-2.65;98.13
80116;BME280;69423;47.608;19.366;2024-01-30T01:13:05;101196.34;;;-2.68;98.16
80116;BME280;69423;47.608;19.366;2024-01-30T01:13:36;101192.06;;;-2.71;98.17
80116;BME280;69423;47.608;19.366;2024-01-30T01:14:07;101202.50;;;-2.71;98.15
80116;BME280;69423;47.608;19.366;2024-01-30T01:14:38;101196.38;;;-2.70;98.15
80116;BME280;69423;47.608;19.366;2024-01-30T01:15:10;101200.72;;;-2.69;98.41
80116;BME280;69423;47.608;19.366;2024-01-30T01:15:41;101198.97;;;-2.70;98.32
80116;BME280;69423;47.608;19.366;2024-01-30T01:16:12;101202.50;;;-2.71;98.00
80116;BME280;69423;47.608;19.366;2024-01-30T01:16:43;101201.63;;;-2.71;98.00
80116;BME280;69423;47.608;19.366;2024-01-30T01:17:14;101205.16;;;-2.72;97.71
80116;BME280;69423;47.608;19.366;2024-01-30T01:17:45;101204.19;;;-2.70;97.73
80116;BME280;69423;47.608;19.366;2024-01-30T01:18:16;101196.38;;;-2.70;97.59
80116;BME280;69423;47.608;19.366;2024-01-30T01:18:47;101204.19;;;-2.70;97.59
80116;BME280;69423;47.608;19.366;2024-01-30T01:19:18;101204.13;;;-2.67;97.48
80116;BME280;69423;47.608;19.366;2024-01-30T01:19:49;101202.41;;;-2.68;97.58
80116;BME280;69423;47.608;19.366;2024-01-30T01:20:20;101199.81;;;-2.69;97.33
80116;BME280;69423;47.608;19.366;2024-01-30T01:20:51;101203.41;;;-2.73;97.17
80116;BME280;69423;47.608;19.366;2024-01-30T01:21:22;101199.94;;;-2.72;96.94
80116;BME280;69423;47.608;19.366;2024-01-30T01:21:53;101191.25;;;-2.73;97.05
80116;BME280;69423;47.608;19.366;2024-01-30T01:22:24;101199.16;;;-2.76;97.04
80116;BME280;69423;47.608;19.366;2024-01-30T01:22:55;101202.59;;;-2.75;96.78
80116;BME280;69423;47.608;19.366;2024-01-30T01:23:26;101193.16;;;-2.79;96.94
80116;BME280;69423;47.608;19.366;2024-01-30T01:23:57;101203.53;;;-2.76;96.87
80116;BME280;69423;47.608;19.366;2024-01-30T01:24:32;101193.13;;;-2.78;97.20
80116;BME280;69423;47.608;19.366;2024-01-30T01:25:03;101202.72;;;-2.78;96.89
80116;BME280;69423;47.608;19.366;2024-01-30T01:25:34;101201.03;;;-2.81;96.48
80116;BME280;69423;47.608;19.366;2024-01-30T01:26:05;101198.38;;;-2.79;96.43
80116;BME280;69423;47.608;19.366;2024-01-30T01:26:38;101194.94;;;-2.81;97.00
80116;BME280;69423;47.608;19.366;2024-01-30T01:27:09;101201.94;;;-2.82;96.91
80116;BME280;69423;47.608;19.366;2024-01-30T01:27:40;101198.50;;;-2.84;96.48
80116;BME280;69423;47.608;19.366;2024-01-30T01:28:12;101196.75;;;-2.83;96.19
80116;BME280;69423;47.608;19.366;2024-01-30T01:28:43;101201.13;;;-2.84;95.98
80116;BME280;69423;47.608;19.366;2024-01-30T01:29:15;101205.47;;;-2.85;96.46
80116;BME280;69423;47.608;19.366;2024-01-30T01:29:46;101198.50;;;-2.84;96.45
80116;BME280;69423;47.608;19.366;2024-01-30T01:30:17;101201.13;;;-2.84;96.53
80116;BME280;69423;47.608;19.366;2024-01-30T01:30:52;101197.63;;;-2.83;96.92
80116;BME280;69423;47.608;19.366;2024-01-30T01:31:23;101200.31;;;-2.86;96.86
80116;BME280;69423;47.608;19.366;2024-01-30T01:31:55;101202.06;;;-2.87;96.83
80116;BME280;69423;47.608;19.366;2024-01-30T01:32:26;101201.28;;;-2.90;96.18
80116;BME280;69423;47.608;19.366;2024-01-30T01:32:57;101201.28;;;-2.90;96.23
80116;BME280;69423;47.608;19.366;2024-01-30T01:33:34;101193.44;;;-2.90;96.57
80116;BME280;69423;47.608;19.366;2024-01-30T01:34:07;101198.66;;;-2.90;96.73
80116;BME280;69423;47.608;19.366;2024-01-30T01:34:38;101187.28;;;-2.88;96.84
80116;BME280;69423;47.608;19.366;2024-01-30T01:35:09;101197.00;;;-2.93;96.39
80116;BME280;69423;47.608;19.366;2024-01-30T01:35:40;101190.94;;;-2.93;96.19
80116;BME280;69423;47.608;19.366;2024-01-30T01:36:13;101192.88;;;-3.00;96.58
80116;BME280;69423;47.608;19.366;2024-01-30T01:36:44;101199.75;;;-2.97;96.45
80116;BME280;69423;47.608;19.366;2024-01-30T01:37:15;101197.00;;;-2.93;96.43
80116;BME280;69423;47.608;19.366;2024-01-30T01:37:46;101195.03;;;-2.85;96.89
80116;BME280;69423;47.608;19.366;2024-01-30T01:38:17;101194.19;;;-2.85;97.57
80116;BME280;69423;47.608;19.366;2024-01-30T01:38:48;101190.84;;;-2.90;97.92
80116;BME280;69423;47.608;19.366;2024-01-30T01:39:19;101192.59;;;-2.91;97.79
80116;BME280;69423;47.608;19.366;2024-01-30T01:39:50;101189.16;;;-2.91;97.47
80116;BME280;69423;47.608;19.366;2024-01-30T01:40:25;101191.75;;;-2.91;97.40
80116;BME280;69423;47.608;19.366;2024-01-30T01:40:56;101187.50;;;-2.95;97.08
80116;BME280;69423;47.608;19.366;2024-01-30T01:41:30;101189.31;;;-2.97;97.16
80116;BME280;69423;47.608;19.366;2024-01-30T01:42:02;101189.31;;;-2.97;97.20
80116;BME280;69423;47.608;19.366;2024-01-30T01:42:34;101189.31;;;-2.97;97.56
80116;BME280;69423;47.608;19.366;2024-01-30T01:43:06;101188.41;;;-2.96;97.59
80116;BME280;69423;47.608;19.366;2024-01-30T01:43:37;101185.78;;;-2.96;97.84
80116;BME280;69423;47.608;19.366;2024-01-30T01:44:09;101190.19;;;-2.98;97.63
80116;BME280;69423;47.608;19.366;2024-01-30T01:44:40;101191.91;;;-2.97;97.50
80116;BME280;69423;47.608;19.366;2024-01-30T01:45:11;101189.31;;;-2.97;97.52
80116;BME280;69423;47.608;19.366;2024-01-30T01:45:42;101194.44;;;-2.94;97.89
80116;BME280;69423;47.608;19.366;2024-01-30T01:46:14;101190.94;;;-2.93;97.97
80116;BME280;69423;47.608;19.366;2024-01-30T01:46:45;101188.47;;;-2.98;97.67
80116;BME280;69423;47.608;19.366;2024-01-30T01:47:16;101178.88;;;-2.97;97.39
80116;BME280;69423;47.608;19.366;2024-01-30T01:47:50;101183.31;;;-3.01;97.67
80116;BME280;69423;47.608;19.366;2024-01-30T01:48:21;101186.75;;;-3.00;97.65
80116;BME280;69423;47.608;19.366;2024-01-30T01:48:53;101190.19;;;-2.98;98.07
80116;BME280;69423;47.608;19.366;2024-01-30T01:49:27;101185.88;;;-2.99;98.12
80116;BME280;69423;47.608;19.366;2024-01-30T01:49:58;101177.09;;;-2.97;98.05
80116;BME280;69423;47.608;19.366;2024-01-30T01:50:29;101181.47;;;-2.97;97.75
80116;BME280;69423;47.608;19.366;2024-01-30T01:51:01;101184.00;;;-2.94;97.51
80116;BME280;69423;47.608;19.366;2024-01-30T01:51:35;101175.34;;;-2.96;97.29
80116;BME280;69423;47.608;19.366;2024-01-30T01:52:06;101181.38;;;-2.94;97.39
80116;BME280;69423;47.608;19.366;2024-01-30T01:52:40;101178.88;;;-2.97;96.88
80116;BME280;69423;47.608;19.366;2024-01-30T01:53:12;101182.22;;;-2.94;96.64
80116;BME280;69423;47.608;19.366;2024-01-30T01:53:44;101173.56;;;-2.94;96.50
80116;BME280;69423;47.608;19.366;2024-01-30T01:54:15;101174.47;;;-2.95;96.30
80116;BME280;69423;47.608;19.366;2024-01-30T01:54:46;101179.59;;;-2.92;96.53
80116;BME280;69423;47.608;19.366;2024-01-30T01:55:20;101184.00;;;-2.94;96.59
80116;BME280;69423;47.608;19.366;2024-01-30T01:55:56;101180.41;;;-2.90;96.76
80116;BME280;69423;47.608;19.366;2024-01-30T01:56:29;101176.97;;;-2.92;96.68
80116;BME280;69423;47.608;19.366;2024-01-30T01:57:01;101183.00;;;-2.90;96.70
80116;BME280;69423;47.608;19.366;2024-01-30T01:57:33;101178.03;;;-2.98;96.61
80116;BME280;69423;47.608;19.366;2024-01-30T01:58:04;101183.28;;;-2.99;96.48
80116;BME280;69423;47.608;19.366;2024-01-30T01:58:36;101175.75;;;-3.10;97.02
80116;BME280;69423;47.608;19.366;2024-01-30T01:59:08;101174.03;;;-3.13;97.25
80116;BME280;69423;47.608;19.366;2024-01-30T01:59:39;101179.34;;;-3.16;97.48
80116;BME280;69423;47.608;19.366;2024-01-30T02:00:12;101175.03;;;-3.17;97.79
80116;BME280;69423;47.608;19.366;2024-01-30T02:00:43;101174.19;;;-3.17;97.83
80116;BME280;69423;47.608;19.366;2024-01-30T02:01:16;101177.72;;;-3.20;98.22
80116;BME280;69423;47.608;19.366;2024-01-30T02:01:49;101177.63;;;-3.17;98.48
80116;BME280;69423;47.608;19.366;2024-01-30T02:02:23;101175.09;;;-3.18;98.51
80116;BME280;69423;47.608;19.366;2024-01-30T02:02:56;101168.13;;;-3.19;98.98
80116;BME280;69423;47.608;19.366;2024-01-30T02:03:28;101170.72;;;-3.18;99.14
80116;BME280;69423;47.608;19.366;2024-01-30T02:04:00;101173.19;;;-3.13;99.42
80116;BME280;69423;47.608;19.366;2024-01-30T02:04:31;101175.78;;;-3.12;99.70
80116;BME280;69423;47.608;19.366;2024-01-30T02:05:02;101172.25;;;-3.11;99.62
80116;BME280;69423;47.608;19.366;2024-01-30T02:05:34;101173.13;;;-3.10;99.04
80116;BME280;69423;47.608;19.366;2024-01-30T02:06:05;101173.19;;;-3.13;99.36
80116;BME280;69423;47.608;19.366;2024-01-30T02:06:37;101170.56;;;-3.12;99.05
80116;BME280;69423;47.608;19.366;2024-01-30T02:07:09;101173.97;;;-3.10;99.17
80116;BME280;69423;47.608;19.366;2024-01-30T02:07:40;101168.75;;;-3.10;98.96
80116;BME280;69423;47.608;19.366;2024-01-30T02:08:12;101181.72;;;-3.07;99.02
80116;BME280;69423;47.608;19.366;2024-01-30T02:08:43;101177.31;;;-3.05;98.91
80116;BME280;69423;47.608;19.366;2024-01-30T02:09:14;101179.91;;;-3.05;99.28
80116;BME280;69423;47.608;19.366;2024-01-30T02:09:45;101174.69;;;-3.05;99.36
80116;BME280;69423;47.608;19.366;2024-01-30T02:10:16;101173.81;;;-3.03;99.93
80116;BME280;69423;47.608;19.366;2024-01-30T02:10:48;101173.81;;;-3.03;99.44
80116;BME280;69423;47.608;19.366;2024-01-30T02:11:22;101174.66;;;-3.03;99.33
80116;BME280;69423;47.608;19.366;2024-01-30T02:11:55;101172.88;;;-3.01;99.40
80116;BME280;69423;47.608;19.366;2024-01-30T02:12:26;101173.72;;;-3.00;98.79
80116;BME280;69423;47.608;19.366;2024-01-30T02:12:57;101181.53;;;-3.00;98.65
80116;BME280;69423;47.608;19.366;2024-01-30T02:13:28;101179.81;;;-3.00;98.49
80116;BME280;69423;47.608;19.366;2024-01-30T02:14:05;101172.88;;;-3.01;99.02
80116;BME280;69423;47.608;19.366;2024-01-30T02:14:47;101175.50;;;-3.02;99.08
80116;BME280;69423;47.608;19.366;2024-01-30T02:15:19;101167.81;;;-3.07;99.28
80116;BME280;69423;47.608;19.366;2024-01-30T02:15:51;101176.59;;;-3.10;99.43
80116;BME280;69423;47.608;19.366;2024-01-30T02:16:22;101170.53;;;-3.10;99.33
80116;BME280;69423;47.608;19.366;2024-01-30T02:16:53;101179.25;;;-3.13;99.56
80116;BME280;69423;47.608;19.366;2024-01-30T02:17:24;101172.34;;;-3.14;99.69
80116;BME280;69423;47.608;19.366;2024-01-30T02:17:55;101170.72;;;-3.18;99.21
80116;BME280;69423;47.608;19.366;2024-01-30T02:18:26;101176.81;;;-3.19;98.96
80116;BME280;69423;47.608;19.366;2024-01-30T02:18:57;101174.19;;;-3.17;99.14
80116;BME280;69423;47.608;19.366;2024-01-30T02:19:28;101172.34;;;-3.14;98.62
80116;BME280;69423;47.608;19.366;2024-01-30T02:19:59;101169.69;;;-3.12;99.01
80116;BME280;69423;47.608;19.366;2024-01-30T02:20:31;101172.31;;;-3.12;98.69
80116;BME280;69423;47.608;19.366;2024-01-30T02:21:04;101179.19;;;-3.10;98.90
80116;BME280;69423;47.608;19.366;2024-01-30T02:21:35;101175.59;;;-3.06;99.15
80116;BME280;69423;47.608;19.366;2024-01-30T02:22:07;101179.91;;;-3.05;98.95
80116;BME280;69423;47.608;19.366;2024-01-30T02:22:40;101173.81;;;-3.03;98.80
80116;BME280;69423;47.608;19.366;2024-01-30T02:23:12;101179.06;;;-3.05;98.92
80116;BME280;69423;47.608;19.366;2024-01-30T02:23:44;101175.44;;;-2.99;98.74
80116;BME280;69423;47.608;19.366;2024-01-30T02:24:17;101172.03;;;-3.01;98.99
80116;BME280;69423;47.608;19.366;2024-01-30T02:24:48;101181.59;;;-3.02;98.73
80116;BME280;69423;47.608;19.366;2024-01-30T02:25:19;101183.31;;;-3.01;98.33
80116;BME280;69423;47.608;19.366;2024-01-30T02:25:50;101180.69;;;-3.01;98.12
80116;BME280;69423;47.608;19.366;2024-01-30T02:26:23;101181.66;;;-3.03;98.46
80116;BME280;69423;47.608;19.366;2024-01-30T02:26:54;101180.84;;;-3.07;98.08
80116;BME280;69423;47.608;19.366;2024-01-30T02:27:25;101183.44;;;-3.06;98.17
80116;BME280;69423;47.608;19.366;2024-01-30T02:27:56;101170.44;;;-3.09;97.46
80116;BME280;69423;47.608;19.366;2024-01-30T02:28:27;101174.78;;;-3.08;97.62
80116;BME280;69423;47.608;19.366;2024-01-30T02:28:58;101181.84;;;-3.11;97.85
80116;BME280;69423;47.608;19.366;2024-01-30T02:29:29;101178.38;;;-3.12;97.92
80116;BME280;69423;47.608;19.366;2024-01-30T02:30:00;101181.84;;;-3.11;97.82
80116;BME280;69423;47.608;19.366;2024-01-30T02:30:31;101181.81;;;-3.10;98.05
80116;BME280;69423;47.608;19.366;2024-01-30T02:31:03;101173.06;;;-3.09;97.94
80116;BME280;69423;47.608;19.366;2024-01-30T02:31:34;101178.38;;;-3.12;97.76
80116;BME280;69423;47.608;19.366;2024-01-30T02:32:05;101180.88;;;-3.09;97.45
80116;BME280;69423;47.608;19.366;2024-01-30T02:32:36;101179.19;;;-3.10;97.78
80116;BME280;69423;47.608;19.366;2024-01-30T02:33:07;101180.13;;;-3.12;97.90
80116;BME280;69423;47.608;19.366;2024-01-30T02:33:38;101188.00;;;-3.14;97.69
80116;BME280;69423;47.608;19.366;2024-01-30T02:34:10;101177.63;;;-3.17;97.52
80116;BME280;69423;47.608;19.366;2024-01-30T02:34:41;101176.75;;;-3.16;97.30
80116;BME280;69423;47.608;19.366;2024-01-30T02:35:12;101177.56;;;-3.14;97.50
80116;BME280;69423;47.608;19.366;2024-01-30T02:35:43;101174.94;;;-3.12;97.57
80116;BME280;69423;47.608;19.366;2024-01-30T02:36:14;101174.03;;;-3.13;97.29
80116;BME280;69423;47.608;19.366;2024-01-30T02:36:46;101175.78;;;-3.12;97.07
80116;BME280;69423;47.608;19.366;2024-01-30T02:37:17;101178.38;;;-3.12;96.98
80116;BME280;69423;47.608;19.366;2024-01-30T02:37:48;101171.41;;;-3.11;96.55
80116;BME280;69423;47.608;19.366;2024-01-30T02:38:19;101180.06;;;-3.11;96.46
80116;BME280;69423;47.608;19.366;2024-01-30T02:38:50;101171.38;;;-3.10;96.59
80116;BME280;69423;47.608;19.366;2024-01-30T02:39:21;101175.66;;;-3.07;96.60
80116;BME280;69423;47.608;19.366;2024-01-30T02:39:52;101176.50;;;-3.07;96.96
80116;BME280;69423;47.608;19.366;2024-01-30T02:40:23;101183.44;;;-3.06;96.83
80116;BME280;69423;47.608;19.366;2024-01-30T02:40:54;101181.78;;;-3.08;96.69
80116;BME280;69423;47.608;19.366;2024-01-30T02:41:26;101181.81;;;-3.10;96.72
80116;BME280;69423;47.608;19.366;2024-01-30T02:41:57;101177.44;;;-3.09;96.67
80116;BME280;69423;47.608;19.366;2024-01-30T02:42:28;101179.09;;;-3.07;96.75